VLG28F LEVC-LEZL

Flight info

Callsign VLG28F
Flight time 0h 56m
Altitude 23000
Route ASTRO M985 MAMIS
Aircraft A320/M-SDE3FGHIRWY/LB1

Departure

Time 2026-04-16 10:15
Airport Valencia Airport (LEVC)

Arrival

Time 2026-04-16 11:11
Airport Seville Airport (LEZL)
Time Latitude Longitude Altitude Speed Heading
2026-04-16 09:53 39.49066 -0.47440 209 ft 0 kts 39°
2026-04-16 10:09 39.49053 -0.47456 211 ft 4 kts 45°
2026-04-16 10:09 39.49035 -0.47482 211 ft 4 kts 58°
2026-04-16 10:10 39.49024 -0.47513 218 ft 4 kts 79°
2026-04-16 10:10 39.49024 -0.47543 214 ft 1 kts 116°
2026-04-16 10:12 39.49012 -0.47511 212 ft 8 kts 116°
2026-04-16 10:12 39.48977 -0.47420 209 ft 14 kts 116°
2026-04-16 10:13 39.48930 -0.47301 212 ft 16 kts 117°
2026-04-16 10:13 39.48838 -0.47218 212 ft 18 kts 159°
2026-04-16 10:13 39.48735 -0.47126 212 ft 19 kts 116°
2026-04-16 10:13 39.48676 -0.46962 216 ft 21 kts 116°
2026-04-16 10:14 39.48609 -0.46795 209 ft 18 kts 124°
2026-04-16 10:14 39.48505 -0.46694 212 ft 20 kts 158°
2026-04-16 10:14 39.48411 -0.46726 212 ft 14 kts 236°
2026-04-16 10:14 39.48442 -0.46873 211 ft 28 kts 296°
2026-04-16 10:15 39.48638 -0.47390 217 ft 97 kts 296°
2026-04-16 10:15 39.49018 -0.48385 211 ft 147 kts 296°
2026-04-16 10:15 39.49536 -0.49713 394 ft 174 kts 296°
2026-04-16 10:15 39.50098 -0.51123 1035 ft 177 kts 297°
2026-04-16 10:16 39.50679 -0.52543 1653 ft 182 kts 297°
2026-04-16 10:16 39.51310 -0.54081 1958 ft 205 kts 297°
2026-04-16 10:16 39.52014 -0.55801 2267 ft 226 kts 297°
2026-04-16 10:16 39.52789 -0.57707 2647 ft 252 kts 296°
2026-04-16 10:17 39.53394 -0.59876 3375 ft 263 kts 273°
2026-04-16 10:17 39.52994 -0.62163 4243 ft 266 kts 237°
2026-04-16 10:17 39.51633 -0.63766 5122 ft 271 kts 204°
2026-04-16 10:17 39.49772 -0.64135 5922 ft 277 kts 174°
2026-04-16 10:18 39.47862 -0.63648 6744 ft 282 kts 165°
2026-04-16 10:18 39.45956 -0.62942 7576 ft 287 kts 162°
2026-04-16 10:18 39.44040 -0.62157 8378 ft 292 kts 168°
2026-04-16 10:18 39.42005 -0.62073 9153 ft 296 kts 191°
2026-04-16 10:19 39.40077 -0.62973 9932 ft 298 kts 213°
2026-04-16 10:19 39.38554 -0.64724 10626 ft 299 kts 234°
2026-04-16 10:19 39.37247 -0.66947 10887 ft 322 kts 236°
2026-04-16 10:19 39.35887 -0.69345 11235 ft 338 kts 236°
2026-04-16 10:20 39.34492 -0.71826 11868 ft 343 kts 236°
2026-04-16 10:20 39.33076 -0.74335 12552 ft 348 kts 236°
2026-04-16 10:20 39.31640 -0.76871 13230 ft 352 kts 236°
2026-04-16 10:20 39.30181 -0.79430 13905 ft 356 kts 236°
2026-04-16 10:21 39.28696 -0.82018 14475 ft 360 kts 236°
2026-04-16 10:21 39.27193 -0.84629 15063 ft 364 kts 236°
2026-04-16 10:21 39.25698 -0.87226 15644 ft 367 kts 236°
2026-04-16 10:21 39.24154 -0.89869 16230 ft 370 kts 235°
2026-04-16 10:22 39.22587 -0.92522 16827 ft 373 kts 235°
2026-04-16 10:22 39.21000 -0.95191 17419 ft 376 kts 234°
2026-04-16 10:22 39.19401 -0.97876 18019 ft 379 kts 234°
2026-04-16 10:22 39.17786 -1.00583 18581 ft 383 kts 234°
2026-04-16 10:23 39.16154 -1.03315 19068 ft 386 kts 234°
2026-04-16 10:23 39.14512 -1.06065 19590 ft 389 kts 235°
2026-04-16 10:23 39.12858 -1.08844 20113 ft 392 kts 235°
2026-04-16 10:23 39.11196 -1.11638 20634 ft 394 kts 235°
2026-04-16 10:24 39.09515 -1.14461 21129 ft 397 kts 235°
2026-04-16 10:24 39.07829 -1.17292 21611 ft 400 kts 235°
2026-04-16 10:24 39.06127 -1.20141 22085 ft 403 kts 235°
2026-04-16 10:24 39.04428 -1.22975 22557 ft 406 kts 235°
2026-04-16 10:25 39.02701 -1.25855 23034 ft 408 kts 235°
2026-04-16 10:25 39.00962 -1.28757 23518 ft 411 kts 235°
2026-04-16 10:25 38.99215 -1.31680 23947 ft 413 kts 235°
2026-04-16 10:25 38.97460 -1.34613 24335 ft 416 kts 235°
2026-04-16 10:26 38.95690 -1.37568 24732 ft 417 kts 235°
2026-04-16 10:26 38.94487 -1.39567 25004 ft 419 kts 235°
2026-04-16 10:26 38.92720 -1.42503 25394 ft 421 kts 235°
2026-04-16 10:26 38.90921 -1.45487 25791 ft 423 kts 235°
2026-04-16 10:27 38.89119 -1.48477 26198 ft 424 kts 235°
2026-04-16 10:27 38.87306 -1.51485 26598 ft 426 kts 235°
2026-04-16 10:27 38.85486 -1.54502 26989 ft 428 kts 235°
2026-04-16 10:27 38.83658 -1.57528 27367 ft 429 kts 235°
2026-04-16 10:28 38.81827 -1.60561 27737 ft 431 kts 235°
2026-04-16 10:28 38.79983 -1.63609 28116 ft 433 kts 235°
2026-04-16 10:28 38.78132 -1.66661 28500 ft 435 kts 235°
2026-04-16 10:28 38.76293 -1.69687 28874 ft 437 kts 235°
2026-04-16 10:29 38.74421 -1.72760 29254 ft 438 kts 235°
2026-04-16 10:29 38.72544 -1.75847 29632 ft 440 kts 235°
2026-04-16 10:29 38.70659 -1.78948 29994 ft 442 kts 236°
2026-04-16 10:29 38.68766 -1.82057 30356 ft 444 kts 235°
2026-04-16 10:30 38.66865 -1.85177 30660 ft 445 kts 236°
2026-04-16 10:30 38.64958 -1.88307 31004 ft 446 kts 236°
2026-04-16 10:30 38.63057 -1.91427 31468 ft 443 kts 236°
2026-04-16 10:30 38.61163 -1.94528 31927 ft 441 kts 236°
2026-04-16 10:31 38.59274 -1.97614 32393 ft 439 kts 236°
2026-04-16 10:31 38.57395 -2.00675 32853 ft 437 kts 236°
2026-04-16 10:31 38.55517 -2.03726 33171 ft 437 kts 236°
2026-04-16 10:31 38.53646 -2.06765 33233 ft 432 kts 236°
2026-04-16 10:32 38.49963 -2.12765 33234 ft 427 kts 236°
2026-04-16 10:32 38.46302 -2.18730 33235 ft 426 kts 236°
2026-04-16 10:33 38.42632 -2.24675 33236 ft 426 kts 236°
2026-04-16 10:33 38.38963 -2.30607 33233 ft 425 kts 236°
2026-04-16 10:34 38.35210 -2.36442 33234 ft 428 kts 230°
2026-04-16 10:34 38.31104 -2.41940 33228 ft 428 kts 231°
2026-04-16 10:35 38.27004 -2.47451 33230 ft 428 kts 230°
2026-04-16 10:35 38.22931 -2.52927 33231 ft 428 kts 230°
2026-04-16 10:36 38.18825 -2.58428 33236 ft 428 kts 230°
2026-04-16 10:36 38.14722 -2.63910 33227 ft 428 kts 230°
2026-04-16 10:37 38.10614 -2.69386 33226 ft 428 kts 230°
2026-04-16 10:37 38.06496 -2.74868 33231 ft 428 kts 230°
2026-04-16 10:38 38.02381 -2.80339 33237 ft 428 kts 230°
2026-04-16 10:38 37.98359 -2.85885 33226 ft 424 kts 237°
2026-04-16 10:39 37.95743 -2.92443 33218 ft 414 kts 257°
2026-04-16 10:39 37.94998 -2.99562 33220 ft 409 kts 269°
2026-04-16 10:40 37.94655 -3.06765 33209 ft 410 kts 268°
2026-04-16 10:40 37.94285 -3.13979 33204 ft 410 kts 268°
2026-04-16 10:41 37.93921 -3.21190 33209 ft 410 kts 268°
2026-04-16 10:41 37.93554 -3.28406 33204 ft 410 kts 268°
2026-04-16 10:42 37.93187 -3.35633 33209 ft 411 kts 268°
2026-04-16 10:42 37.92819 -3.42857 33203 ft 410 kts 268°
2026-04-16 10:43 37.92439 -3.50074 33206 ft 410 kts 268°
2026-04-16 10:43 37.92058 -3.57283 33203 ft 410 kts 268°
2026-04-16 10:44 37.91679 -3.64444 33203 ft 410 kts 268°
2026-04-16 10:44 37.91295 -3.71653 33202 ft 410 kts 268°
2026-04-16 10:45 37.90903 -3.78861 33201 ft 410 kts 268°
2026-04-16 10:45 37.90515 -3.86066 33202 ft 410 kts 268°
2026-04-16 10:46 37.90127 -3.93265 33205 ft 410 kts 268°
2026-04-16 10:46 37.89728 -4.00469 33198 ft 410 kts 267°
2026-04-16 10:47 37.89321 -4.07668 33198 ft 410 kts 267°
2026-04-16 10:47 37.89117 -4.11264 33094 ft 407 kts 267°
2026-04-16 10:47 37.88918 -4.14767 32835 ft 399 kts 267°
2026-04-16 10:48 37.88721 -4.18237 32578 ft 392 kts 267°
2026-04-16 10:48 37.88524 -4.21672 32320 ft 389 kts 267°
2026-04-16 10:48 37.88326 -4.25077 32072 ft 385 kts 267°
2026-04-16 10:48 37.88130 -4.28440 31697 ft 381 kts 267°
2026-04-16 10:49 37.87933 -4.31782 31284 ft 379 kts 266°
2026-04-16 10:49 37.87739 -4.35093 30874 ft 376 kts 267°
2026-04-16 10:49 37.87546 -4.38388 30480 ft 374 kts 266°
2026-04-16 10:49 37.87356 -4.41631 30062 ft 372 kts 266°
2026-04-16 10:50 37.87164 -4.44885 29664 ft 369 kts 266°
2026-04-16 10:50 37.86974 -4.48111 29282 ft 366 kts 266°
2026-04-16 10:50 37.86784 -4.51305 28916 ft 363 kts 266°
2026-04-16 10:50 37.86593 -4.54478 28553 ft 360 kts 266°
2026-04-16 10:51 37.86403 -4.57617 28193 ft 356 kts 266°
2026-04-16 10:51 37.86213 -4.60737 27829 ft 354 kts 266°
2026-04-16 10:51 37.86024 -4.63826 27470 ft 351 kts 266°
2026-04-16 10:51 37.85834 -4.66895 27112 ft 348 kts 266°
2026-04-16 10:52 37.85647 -4.69908 26757 ft 345 kts 266°
2026-04-16 10:52 37.85459 -4.72924 26400 ft 343 kts 266°
2026-04-16 10:52 37.85270 -4.75917 26038 ft 340 kts 266°
2026-04-16 10:52 37.85080 -4.78904 25666 ft 339 kts 266°
2026-04-16 10:53 37.84892 -4.81866 25301 ft 337 kts 266°
2026-04-16 10:53 37.84691 -4.84818 24908 ft 336 kts 263°
2026-04-16 10:53 37.84267 -4.87729 24517 ft 336 kts 260°
2026-04-16 10:53 37.83820 -4.90630 24124 ft 336 kts 261°
2026-04-16 10:54 37.83371 -4.93541 23713 ft 336 kts 260°
2026-04-16 10:54 37.82921 -4.96441 23269 ft 335 kts 261°
2026-04-16 10:54 37.82476 -4.99323 22867 ft 333 kts 261°
2026-04-16 10:54 37.82033 -5.02190 22463 ft 331 kts 261°
2026-04-16 10:55 37.81594 -5.05037 22071 ft 329 kts 261°
2026-04-16 10:55 37.81157 -5.07868 21685 ft 328 kts 261°
2026-04-16 10:55 37.80717 -5.10694 21286 ft 326 kts 261°
2026-04-16 10:55 37.80277 -5.13507 20895 ft 325 kts 261°
2026-04-16 10:56 37.79839 -5.16306 20505 ft 325 kts 261°
2026-04-16 10:56 37.79400 -5.19106 20109 ft 324 kts 261°
2026-04-16 10:56 37.78963 -5.21901 19725 ft 324 kts 261°
2026-04-16 10:56 37.78531 -5.24660 19337 ft 324 kts 261°
2026-04-16 10:57 37.78094 -5.27453 18952 ft 324 kts 261°
2026-04-16 10:57 37.77655 -5.30248 18560 ft 324 kts 261°
2026-04-16 10:57 37.77216 -5.33039 18131 ft 324 kts 261°
2026-04-16 10:57 37.76779 -5.35829 17740 ft 323 kts 261°
2026-04-16 10:58 37.76342 -5.38605 17349 ft 321 kts 261°
2026-04-16 10:58 37.75904 -5.41368 16967 ft 320 kts 261°
2026-04-16 10:58 37.75469 -5.44121 16582 ft 319 kts 261°
2026-04-16 10:58 37.75032 -5.46871 16200 ft 319 kts 261°
2026-04-16 10:59 37.74594 -5.49617 15826 ft 318 kts 261°
2026-04-16 10:59 37.74154 -5.52351 15442 ft 318 kts 261°
2026-04-16 10:59 37.73714 -5.55083 15057 ft 317 kts 261°
2026-04-16 10:59 37.73275 -5.57817 14678 ft 317 kts 261°
2026-04-16 11:00 37.72838 -5.60547 14298 ft 317 kts 262°
2026-04-16 11:00 37.72402 -5.63279 13909 ft 317 kts 262°
2026-04-16 11:00 37.71965 -5.66013 13502 ft 317 kts 262°
2026-04-16 11:00 37.71529 -5.68732 13128 ft 315 kts 261°
2026-04-16 11:01 37.71088 -5.71438 12749 ft 314 kts 261°
2026-04-16 11:01 37.70654 -5.74101 12378 ft 313 kts 261°
2026-04-16 11:01 37.70221 -5.76796 12012 ft 313 kts 261°
2026-04-16 11:01 37.69788 -5.79492 11619 ft 313 kts 261°
2026-04-16 11:02 37.69354 -5.82182 11247 ft 313 kts 261°
2026-04-16 11:02 37.68915 -5.84877 10859 ft 313 kts 261°
2026-04-16 11:02 37.68475 -5.87571 10511 ft 312 kts 260°
2026-04-16 11:02 37.68042 -5.90223 10384 ft 304 kts 260°
2026-04-16 11:03 37.67621 -5.92798 9966 ft 296 kts 260°
2026-04-16 11:03 37.67208 -5.95330 9411 ft 292 kts 260°
2026-04-16 11:03 37.66308 -6.00158 8659 ft 276 kts 249°
2026-04-16 11:04 37.65392 -6.02241 8332 ft 268 kts 233°
2026-04-16 11:04 37.64120 -6.03916 8000 ft 264 kts 219°
2026-04-16 11:04 37.62620 -6.05260 7664 ft 266 kts 215°
2026-04-16 11:04 37.61089 -6.06604 7329 ft 270 kts 215°
2026-04-16 11:05 37.59535 -6.07969 7000 ft 274 kts 215°
2026-04-16 11:05 37.57966 -6.09348 6655 ft 275 kts 215°
2026-04-16 11:05 37.56380 -6.10745 6151 ft 282 kts 215°
2026-04-16 11:05 37.54761 -6.12172 5759 ft 285 kts 215°
2026-04-16 11:06 37.53122 -6.13590 5384 ft 286 kts 211°
2026-04-16 11:06 37.51292 -6.14457 5030 ft 286 kts 188°
2026-04-16 11:06 37.49303 -6.14382 4642 ft 280 kts 166°
2026-04-16 11:06 37.47482 -6.13762 4280 ft 269 kts 164°
2026-04-16 11:07 37.45688 -6.13136 3939 ft 260 kts 164°
2026-04-16 11:07 37.43975 -6.12534 3606 ft 251 kts 162°
2026-04-16 11:07 37.42519 -6.11456 3279 ft 241 kts 132°
2026-04-16 11:07 37.41768 -6.09663 2889 ft 234 kts 100°
2026-04-16 11:08 37.41709 -6.07679 2589 ft 219 kts 88°
2026-04-16 11:08 37.41723 -6.05829 2319 ft 205 kts 88°
2026-04-16 11:08 37.41731 -6.04092 2072 ft 191 kts 88°
2026-04-16 11:08 37.41739 -6.02504 1817 ft 171 kts 89°
2026-04-16 11:09 37.41745 -6.01079 1615 ft 154 kts 88°
2026-04-16 11:09 37.41752 -5.99778 1392 ft 144 kts 88°
2026-04-16 11:09 37.41757 -5.98529 1211 ft 142 kts 88°
2026-04-16 11:09 37.41762 -5.97297 1026 ft 141 kts 88°
2026-04-16 11:10 37.41768 -5.96067 866 ft 141 kts 88°
2026-04-16 11:10 37.41774 -5.94840 684 ft 140 kts 89°
2026-04-16 11:10 37.41771 -5.94031 611 ft 141 kts 89°
2026-04-16 11:10 37.41772 -5.92808 407 ft 139 kts 88°
2026-04-16 11:11 37.41779 -5.91618 198 ft 135 kts 88°
2026-04-16 11:11 37.41792 -5.90136 98 ft 106 kts 90°
2026-04-16 11:11 37.41793 -5.89611 98 ft 72 kts 89°
2026-04-16 11:11 37.41793 -5.89320 100 ft 17 kts 90°
2026-04-16 11:12 37.41869 -5.89271 100 ft 14 kts 310°
2026-04-16 11:12 37.41929 -5.89317 100 ft 16 kts 331°
2026-04-16 11:12 37.42024 -5.89408 100 ft 19 kts 316°
2026-04-16 11:12 37.42122 -5.89535 97 ft 22 kts 314°
2026-04-16 11:13 37.42231 -5.89676 94 ft 22 kts 314°
2026-04-16 11:13 37.42264 -5.89745 93 ft 3 kts 265°
2026-04-16 11:13 37.42257 -5.89774 96 ft 4 kts 255°
2026-04-16 11:13 37.42272 -5.89804 96 ft 5 kts 317°
2026-04-16 11:14 37.42297 -5.89834 94 ft 3 kts 314°
2026-04-16 11:14 37.42302 -5.89842 94 ft 0 kts 314°